createdAt,value
2018-10-17T00:02:20.389Z,11.10
2018-10-17T00:04:47.611Z,10.60
2018-10-17T00:07:14.823Z,10.83
2018-10-17T00:09:42.070Z,10.70
2018-10-17T00:12:09.210Z,10.43
2018-10-17T00:14:36.366Z,11.20
2018-10-17T00:17:03.544Z,10.03
2018-10-17T00:19:30.681Z,10.40
2018-10-17T00:21:57.954Z,10.50
2018-10-17T00:24:25.111Z,10.10
2018-10-17T00:26:52.294Z,9.93
2018-10-17T00:29:19.466Z,10.30
2018-10-17T00:31:46.621Z,9.70
2018-10-17T00:34:13.790Z,9.77
2018-10-17T00:36:40.987Z,9.80
2018-10-17T00:39:09.207Z,9.50
2018-10-17T00:41:36.614Z,9.67
2018-10-17T00:44:03.882Z,9.73
2018-10-17T00:46:31.029Z,9.83
2018-10-17T00:48:58.206Z,10.00
2018-10-17T00:51:25.368Z,9.90
2018-10-17T00:53:52.530Z,9.07
2018-10-17T00:56:19.773Z,10.20
2018-10-17T00:58:52.444Z,9.47
2018-10-17T01:01:19.601Z,9.80
2018-10-17T01:03:46.786Z,9.60
2018-10-17T01:06:13.986Z,9.10
2018-10-17T01:08:41.154Z,9.77
2018-10-17T01:11:08.345Z,9.70
2018-10-17T01:13:35.498Z,10.00
2018-10-17T01:16:02.661Z,10.00
2018-10-17T01:18:29.860Z,9.77
2018-10-17T01:20:57.000Z,10.07
2018-10-17T01:23:24.206Z,9.70
2018-10-17T01:25:51.364Z,9.43
2018-10-17T01:28:18.571Z,9.57
2018-10-17T01:30:45.747Z,9.97
2018-10-17T01:33:12.910Z,9.63
2018-10-17T01:35:40.100Z,9.77
2018-10-17T01:38:07.257Z,9.23
2018-10-17T01:40:34.440Z,9.67
2018-10-17T01:43:01.651Z,9.30
2018-10-17T01:45:28.766Z,9.57
2018-10-17T01:47:55.978Z,9.40
2018-10-17T01:50:23.202Z,10.10
2018-10-17T01:52:50.396Z,8.63
2018-10-17T01:55:17.550Z,9.30
2018-10-17T01:57:44.723Z,9.13
2018-10-17T02:00:11.938Z,9.10
2018-10-17T02:02:39.219Z,9.00
2018-10-17T02:05:06.502Z,8.80
2018-10-17T02:07:33.591Z,9.17
2018-10-17T02:10:00.744Z,8.87
2018-10-17T02:12:27.933Z,9.53
2018-10-17T02:14:55.135Z,9.30
2018-10-17T02:17:22.342Z,8.80
2018-10-17T02:19:49.522Z,8.43
2018-10-17T02:22:16.739Z,9.00
2018-10-17T02:24:43.910Z,8.97
2018-10-17T02:27:11.090Z,9.00
2018-10-17T02:29:38.249Z,9.30
2018-10-17T02:32:05.489Z,8.90
2018-10-17T02:34:37.010Z,9.83
2018-10-17T02:37:04.289Z,10.03
2018-10-17T02:39:31.427Z,9.60
2018-10-17T02:41:58.593Z,8.60
2018-10-17T02:44:26.017Z,9.30
2018-10-17T02:46:53.195Z,9.30
2018-10-17T02:49:20.350Z,9.23
2018-10-17T02:51:47.550Z,9.27
2018-10-17T02:54:14.706Z,9.47
2018-10-17T02:56:41.883Z,8.97
2018-10-17T02:59:09.092Z,10.07
2018-10-17T03:01:36.243Z,9.73
2018-10-17T03:04:03.423Z,8.70
2018-10-17T03:06:30.587Z,9.30
2018-10-17T03:08:58.065Z,9.00
2018-10-17T03:11:25.231Z,9.00
2018-10-17T03:13:52.386Z,8.40
2018-10-17T03:16:19.561Z,9.10
2018-10-17T03:18:46.763Z,8.83
2018-10-17T03:21:13.966Z,8.90
2018-10-17T03:23:41.232Z,9.10
2018-10-17T03:26:08.411Z,9.20
2018-10-17T03:28:35.715Z,8.80
2018-10-17T03:31:02.898Z,8.77
2018-10-17T03:33:30.109Z,9.40
2018-10-17T03:35:57.384Z,8.73
2018-10-17T03:38:24.479Z,8.47
2018-10-17T03:40:51.664Z,8.40
2018-10-17T03:43:18.896Z,8.70
2018-10-17T03:45:46.046Z,8.50
2018-10-17T03:48:13.219Z,8.80
2018-10-17T03:50:40.436Z,8.13
2018-10-17T03:53:07.653Z,8.50
2018-10-17T03:55:34.777Z,8.77
2018-10-17T03:58:01.957Z,8.40
2018-10-17T04:00:29.137Z,8.50
2018-10-17T04:02:56.368Z,8.40
2018-10-17T04:05:23.503Z,8.77
2018-10-17T04:07:50.727Z,8.43
2018-10-17T04:10:17.890Z,9.00
2018-10-17T04:12:45.094Z,8.37
2018-10-17T04:15:12.258Z,8.70
2018-10-17T04:17:39.436Z,9.00
2018-10-17T04:20:06.838Z,8.47
2018-10-17T04:22:34.013Z,8.50
2018-10-17T04:25:01.190Z,8.83
2018-10-17T04:27:28.326Z,8.53
2018-10-17T04:29:55.497Z,7.67
2018-10-17T04:32:22.789Z,8.70
2018-10-17T04:34:49.959Z,7.77
2018-10-17T04:37:17.217Z,8.43
2018-10-17T04:39:44.278Z,8.10
2018-10-17T04:42:11.451Z,8.10
2018-10-17T04:44:38.659Z,8.10
2018-10-17T04:47:05.865Z,8.40
2018-10-17T04:49:33.093Z,8.50
2018-10-17T04:52:00.249Z,7.70
2018-10-17T04:54:27.431Z,8.33
2018-10-17T04:56:54.573Z,8.80
2018-10-17T04:59:21.783Z,7.87
2018-10-17T05:01:49.005Z,8.13
2018-10-17T05:04:16.217Z,8.53
2018-10-17T05:06:43.405Z,8.60
2018-10-17T05:09:10.979Z,8.07
2018-10-17T05:11:38.734Z,8.40
2018-10-17T05:14:06.027Z,8.23
2018-10-17T05:16:33.196Z,8.10
2018-10-17T05:19:00.404Z,8.60
2018-10-17T05:21:27.545Z,8.47
2018-10-17T05:23:54.731Z,8.37
2018-10-17T05:26:21.985Z,8.43
2018-10-17T05:28:49.174Z,8.20
2018-10-17T05:31:16.364Z,8.33
2018-10-17T05:33:43.595Z,7.77
2018-10-17T05:36:10.746Z,8.57
2018-10-17T05:38:37.917Z,8.13
2018-10-17T05:41:05.144Z,8.00
2018-10-17T05:43:32.314Z,8.40
2018-10-17T05:46:02.599Z,8.33
2018-10-17T05:48:29.755Z,8.60
2018-10-17T05:50:56.930Z,8.70
2018-10-17T05:53:24.107Z,7.93
2018-10-17T05:55:51.289Z,8.80
2018-10-17T05:58:18.634Z,8.00
2018-10-17T06:00:45.834Z,8.50
2018-10-17T06:03:12.978Z,7.93
2018-10-17T06:05:40.175Z,8.57
2018-10-17T06:08:07.325Z,8.40
2018-10-17T06:10:34.527Z,8.67
2018-10-17T06:13:01.712Z,8.83
2018-10-17T06:15:28.881Z,8.37
2018-10-17T06:17:56.100Z,8.53
2018-10-17T06:20:23.283Z,8.43
2018-10-17T06:22:50.450Z,8.50
2018-10-17T06:25:17.648Z,8.77
2018-10-17T06:27:44.763Z,8.70
2018-10-17T06:30:11.962Z,8.40
2018-10-17T06:32:39.978Z,9.20
2018-10-17T06:35:07.502Z,8.20
2018-10-17T06:37:34.919Z,8.67
2018-10-17T06:40:02.148Z,8.73
2018-10-17T06:42:29.307Z,8.80
2018-10-17T06:44:56.518Z,9.10
2018-10-17T06:47:23.674Z,8.40
2018-10-17T06:49:50.854Z,8.50
2018-10-17T06:52:18.015Z,9.33
2018-10-17T06:54:45.239Z,8.87
2018-10-17T06:57:12.412Z,8.77
2018-10-17T06:59:39.587Z,9.43
2018-10-17T07:02:06.817Z,9.20
2018-10-17T07:04:33.980Z,9.27
2018-10-17T07:07:01.180Z,8.70
2018-10-17T07:09:28.312Z,9.07
2018-10-17T07:11:55.470Z,9.13
2018-10-17T07:14:22.646Z,9.23
2018-10-17T07:16:49.807Z,9.40
2018-10-17T07:19:17.092Z,10.43
2018-10-17T07:21:44.142Z,11.60
2018-10-17T07:24:11.303Z,10.40
2018-10-17T07:26:38.483Z,9.57
2018-10-17T07:29:05.745Z,11.40
2018-10-17T07:31:32.878Z,10.17
2018-10-17T07:34:00.051Z,10.40
2018-10-17T07:36:27.222Z,10.97
2018-10-17T07:38:54.394Z,11.60
2018-10-17T07:41:21.618Z,11.40
2018-10-17T07:43:48.780Z,11.00
2018-10-17T07:46:15.947Z,11.97
2018-10-17T07:48:43.142Z,11.50
2018-10-17T07:51:10.319Z,11.77
2018-10-17T07:53:37.574Z,10.80
2018-10-17T07:56:04.694Z,10.57
2018-10-17T07:58:31.971Z,11.10
2018-10-17T08:00:59.151Z,11.23
2018-10-17T08:03:26.331Z,10.63
2018-10-17T08:05:53.556Z,10.83
2018-10-17T08:08:20.663Z,10.67
2018-10-17T08:10:47.831Z,11.93
2018-10-17T08:13:14.986Z,11.13
2018-10-17T08:15:42.155Z,10.47
2018-10-17T08:18:09.441Z,10.90
2018-10-17T08:20:36.567Z,10.83
2018-10-17T08:23:04.114Z,10.63
2018-10-17T08:25:31.265Z,10.93
2018-10-17T08:27:58.429Z,10.60
2018-10-17T08:30:25.743Z,10.60
2018-10-17T08:32:52.922Z,9.83
2018-10-17T08:35:20.182Z,10.87
2018-10-17T08:37:47.617Z,10.97
2018-10-17T08:40:14.426Z,9.80
2018-10-17T08:42:41.580Z,10.10
2018-10-17T08:45:08.756Z,10.13
2018-10-17T08:47:35.897Z,11.23
2018-10-17T08:50:03.116Z,10.67
2018-10-17T08:52:30.238Z,11.97
2018-10-17T08:54:57.410Z,10.97
2018-10-17T08:57:24.594Z,11.40
2018-10-17T08:59:51.749Z,11.40
2018-10-17T09:02:18.942Z,11.10
2018-10-17T09:04:46.106Z,11.10
2018-10-17T09:07:13.272Z,11.20
2018-10-17T09:09:40.434Z,11.37
2018-10-17T09:12:07.677Z,12.00
2018-10-17T09:14:34.779Z,9.87
2018-10-17T09:17:01.958Z,11.43
2018-10-17T09:19:29.229Z,11.03
2018-10-17T09:21:56.657Z,11.00
2018-10-17T09:24:23.468Z,11.40
2018-10-17T09:26:50.653Z,11.33
2018-10-17T09:29:17.999Z,11.83
2018-10-17T09:31:45.178Z,11.27
2018-10-17T09:34:12.376Z,11.30
2018-10-17T09:36:39.591Z,11.67
2018-10-17T09:39:07.615Z,10.40
2018-10-17T09:41:34.781Z,11.67
2018-10-17T09:44:01.937Z,11.53
2018-10-17T09:46:29.115Z,10.70
2018-10-17T09:48:56.275Z,11.93
2018-10-17T09:51:23.551Z,11.40
2018-10-17T09:53:50.844Z,10.07
2018-10-17T09:56:17.994Z,10.07
2018-10-17T09:58:45.167Z,8.97
2018-10-17T10:01:15.873Z,8.77
2018-10-17T10:03:43.061Z,8.70
2018-10-17T10:06:10.298Z,8.67
2018-10-17T10:08:37.438Z,9.00
2018-10-17T10:11:04.787Z,8.90
2018-10-17T10:13:31.845Z,8.73
2018-10-17T10:15:59.037Z,8.73
2018-10-17T10:18:26.171Z,8.60
2018-10-17T10:20:53.334Z,8.23
2018-10-17T10:23:20.540Z,8.83
2018-10-17T10:25:47.667Z,7.90
2018-10-17T10:28:14.908Z,8.10
2018-10-17T10:30:42.050Z,8.00
2018-10-17T10:33:09.210Z,7.07
2018-10-17T10:35:36.371Z,7.40
2018-10-17T10:38:03.540Z,7.90
2018-10-17T10:40:30.718Z,7.30
2018-10-17T10:42:57.881Z,7.00
2018-10-17T10:45:25.051Z,7.60
2018-10-17T10:47:52.308Z,7.40
2018-10-17T10:50:19.524Z,7.53
2018-10-17T10:52:46.631Z,7.40
2018-10-17T10:55:13.786Z,7.70
2018-10-17T10:57:40.955Z,7.60
2018-10-17T11:00:08.188Z,8.07
2018-10-17T11:02:35.310Z,7.20
2018-10-17T11:05:02.524Z,7.83
2018-10-17T11:07:29.618Z,7.43
2018-10-17T11:09:56.795Z,7.47
2018-10-17T11:12:23.948Z,7.27
2018-10-17T11:14:51.165Z,7.37
2018-10-17T11:17:18.269Z,7.57
2018-10-17T11:19:45.438Z,7.70
2018-10-17T11:22:12.635Z,7.83
2018-10-17T11:24:39.807Z,7.10
2018-10-17T11:27:07.054Z,7.23
2018-10-17T11:29:34.180Z,7.10
2018-10-17T11:32:01.429Z,7.13
2018-10-17T11:34:28.526Z,7.37
2018-10-17T11:36:55.689Z,6.97
2018-10-17T11:39:22.834Z,7.30
2018-10-17T11:41:49.990Z,7.00
2018-10-17T11:44:17.134Z,6.80
2018-10-17T11:46:44.305Z,6.30
2018-10-17T11:49:11.463Z,6.70
2018-10-17T11:51:38.623Z,6.87
2018-10-17T11:54:05.833Z,7.17
2018-10-17T11:56:32.988Z,6.43
2018-10-17T11:59:00.166Z,6.33
2018-10-17T12:01:27.326Z,7.00
2018-10-17T12:03:54.789Z,7.07
2018-10-17T12:06:21.774Z,6.43
2018-10-17T12:08:48.862Z,6.47
2018-10-17T12:11:16.060Z,6.40
2018-10-17T12:13:43.191Z,6.70
2018-10-17T12:16:10.354Z,6.10
2018-10-17T12:18:37.542Z,6.10
2018-10-17T12:21:05.100Z,6.17
2018-10-17T12:23:32.231Z,6.43
2018-10-17T12:25:59.385Z,6.37
2018-10-17T12:28:26.620Z,6.60
2018-10-17T12:30:53.727Z,6.30
2018-10-17T12:33:20.887Z,5.63
2018-10-17T12:35:48.051Z,6.20
2018-10-17T12:38:15.227Z,6.13
2018-10-17T12:40:42.410Z,6.03
2018-10-17T12:43:09.607Z,6.13
2018-10-17T12:45:36.840Z,5.83
2018-10-17T12:48:03.970Z,6.00
2018-10-17T12:50:31.147Z,6.40
2018-10-17T12:52:58.406Z,5.77
2018-10-17T12:55:25.550Z,6.33
2018-10-17T12:57:52.718Z,5.60
2018-10-17T13:00:19.870Z,5.63
2018-10-17T13:02:47.107Z,5.67
2018-10-17T13:05:14.339Z,5.97
2018-10-17T13:07:41.449Z,5.90
2018-10-17T13:10:09.246Z,5.63
2018-10-17T13:12:36.507Z,6.10
2018-10-17T13:15:03.869Z,5.60
2018-10-17T13:17:30.909Z,5.53
2018-10-17T13:19:58.084Z,5.30
2018-10-17T13:22:25.261Z,5.67
2018-10-17T13:24:52.493Z,5.60
2018-10-17T13:27:19.626Z,5.90
2018-10-17T13:29:46.823Z,6.00
2018-10-17T13:32:13.989Z,5.60
2018-10-17T13:34:41.170Z,5.70
2018-10-17T13:37:08.385Z,5.67
2018-10-17T13:39:35.516Z,5.30
2018-10-17T13:42:02.677Z,5.70
2018-10-17T13:44:29.824Z,5.30
2018-10-17T13:46:57.011Z,5.53
2018-10-17T13:49:24.225Z,5.20
2018-10-17T13:51:51.336Z,5.60
2018-10-17T13:54:18.512Z,5.53
2018-10-17T13:56:45.668Z,5.80
2018-10-17T13:59:12.886Z,6.50
2018-10-17T14:01:39.977Z,6.30
2018-10-17T14:04:07.147Z,6.10
2018-10-17T14:06:34.330Z,6.33
2018-10-17T14:09:01.503Z,6.50
2018-10-17T14:11:28.763Z,6.30
2018-10-17T14:13:55.880Z,7.20
2018-10-17T14:16:23.046Z,6.20
2018-10-17T14:18:50.193Z,6.63
2018-10-17T14:21:17.457Z,6.43
2018-10-17T14:23:44.512Z,5.93
2018-10-17T14:26:11.687Z,6.53
2018-10-17T14:28:38.861Z,6.07
2018-10-17T14:31:06.034Z,6.00
2018-10-17T14:33:33.208Z,6.33
2018-10-17T14:36:00.425Z,6.53
2018-10-17T14:38:27.542Z,6.60
2018-10-17T14:40:54.769Z,6.23
2018-10-17T14:43:21.870Z,6.70
2018-10-17T14:45:49.053Z,6.57
2018-10-17T14:48:16.271Z,6.87
2018-10-17T14:50:43.386Z,6.83
2018-10-17T14:53:10.585Z,7.20
2018-10-17T14:55:37.740Z,7.10
2018-10-17T14:58:05.002Z,7.10
2018-10-17T15:00:32.151Z,7.00
2018-10-17T15:02:59.359Z,7.30
2018-10-17T15:05:26.478Z,7.37
2018-10-17T15:07:53.643Z,7.07
2018-10-17T15:10:20.879Z,7.40
2018-10-17T15:12:47.970Z,7.13
2018-10-17T15:15:15.179Z,6.70
2018-10-17T15:17:42.695Z,7.37
2018-10-17T15:20:10.311Z,6.60
2018-10-17T15:22:37.786Z,7.17
2018-10-17T15:25:05.372Z,6.73
2018-10-17T15:27:32.546Z,7.40
2018-10-17T15:29:59.813Z,7.30
2018-10-17T15:32:26.903Z,7.50
2018-10-17T15:34:54.058Z,7.03
2018-10-17T15:37:21.315Z,7.17
2018-10-17T15:39:48.462Z,7.53
2018-10-17T15:42:15.702Z,7.40
2018-10-17T15:44:42.798Z,6.87
2018-10-17T15:47:09.958Z,6.90
2018-10-17T15:49:37.146Z,6.90
2018-10-17T15:52:04.301Z,7.67
2018-10-17T15:54:31.477Z,7.73
2018-10-17T15:56:58.683Z,6.73
2018-10-17T15:59:25.965Z,7.20
2018-10-17T16:01:53.152Z,7.63
2018-10-17T16:04:20.323Z,7.87
2018-10-17T16:06:47.529Z,7.57
2018-10-17T16:09:14.679Z,10.60
2018-10-17T16:11:42.067Z,12.90
2018-10-17T16:14:09.210Z,13.63
2018-10-17T16:16:36.297Z,12.63
2018-10-17T16:19:03.658Z,9.80
2018-10-17T16:21:30.856Z,9.40
2018-10-17T16:23:58.046Z,9.07
2018-10-17T16:26:25.442Z,8.93
2018-10-17T16:28:52.667Z,8.87
2018-10-17T16:31:19.878Z,9.70
2018-10-17T16:33:47.894Z,9.20
2018-10-17T16:36:15.276Z,9.10
2018-10-17T16:38:42.418Z,9.27
2018-10-17T16:41:09.654Z,9.67
2018-10-17T16:43:36.755Z,9.87
2018-10-17T16:46:03.953Z,9.77
2018-10-17T16:48:32.149Z,9.73
2018-10-17T16:50:59.378Z,9.47
2018-10-17T16:53:26.505Z,8.93
2018-10-17T16:55:53.685Z,9.87
2018-10-17T16:58:20.840Z,9.83
2018-10-17T17:00:48.040Z,9.90
2018-10-17T17:03:15.288Z,10.13
2018-10-17T17:05:42.358Z,10.77
2018-10-17T17:08:09.532Z,10.00
2018-10-17T17:10:36.706Z,10.50
2018-10-17T17:13:03.918Z,10.17
2018-10-17T17:15:31.247Z,9.37
2018-10-17T17:17:58.435Z,10.13
2018-10-17T17:20:25.613Z,9.80
2018-10-17T17:22:52.854Z,10.10
2018-10-17T17:25:19.948Z,10.90
2018-10-17T17:27:47.100Z,10.03
2018-10-17T17:30:16.067Z,9.90
2018-10-17T17:32:43.606Z,10.00
2018-10-17T17:35:10.892Z,11.10
2018-10-17T17:37:38.045Z,10.57
2018-10-17T17:40:05.883Z,9.63
2018-10-17T17:42:33.054Z,11.13
2018-10-17T17:45:00.210Z,10.50
2018-10-17T17:47:27.383Z,9.87
2018-10-17T17:49:54.554Z,10.77
2018-10-17T17:52:21.783Z,10.40
2018-10-17T17:54:48.923Z,10.60
2018-10-17T17:57:16.108Z,11.23
2018-10-17T17:59:43.361Z,12.67
2018-10-17T18:02:10.536Z,12.47
2018-10-17T18:04:37.699Z,12.10
2018-10-17T18:07:05.381Z,11.13
2018-10-17T18:09:33.618Z,11.13
2018-10-17T18:12:00.790Z,11.00
2018-10-17T18:14:27.968Z,11.10
2018-10-17T18:16:55.164Z,12.17
2018-10-17T18:19:22.325Z,13.23
2018-10-17T18:21:49.592Z,11.67
2018-10-17T18:24:16.831Z,11.80
2018-10-17T18:26:43.981Z,10.90
2018-10-17T18:29:11.157Z,12.57
2018-10-17T18:31:38.343Z,11.60
2018-10-17T18:34:05.584Z,11.70
2018-10-17T18:36:32.673Z,10.60
2018-10-17T18:38:59.890Z,10.80
2018-10-17T18:41:27.126Z,11.40
2018-10-17T18:43:54.354Z,11.90
2018-10-17T18:46:21.552Z,11.30
2018-10-17T18:48:48.732Z,11.30
2018-10-17T18:51:15.991Z,11.90
2018-10-17T18:53:43.098Z,12.00
2018-10-17T18:56:10.310Z,11.87
2018-10-17T18:58:37.447Z,12.13
2018-10-17T19:01:05.001Z,11.83
2018-10-17T19:03:32.174Z,11.60
2018-10-17T19:05:59.338Z,11.30
2018-10-17T19:08:26.511Z,11.10
2018-10-17T19:10:53.675Z,11.27
2018-10-17T19:13:21.047Z,11.53
2018-10-17T19:15:48.326Z,10.90
2018-10-17T19:18:15.572Z,11.27
2018-10-17T19:20:42.821Z,11.47
2018-10-17T19:23:09.994Z,12.50
2018-10-17T19:25:37.232Z,11.50
2018-10-17T19:28:04.582Z,11.43
2018-10-17T19:30:31.826Z,11.50
2018-10-17T19:32:59.112Z,11.60
2018-10-17T19:35:26.260Z,11.03
2018-10-17T19:37:53.426Z,11.93
2018-10-17T19:40:20.610Z,11.13
2018-10-17T19:42:47.833Z,12.27
2018-10-17T19:45:15.122Z,11.70
2018-10-17T19:47:42.335Z,12.33
2018-10-17T19:50:09.768Z,12.00
2018-10-17T19:52:37.189Z,12.40
2018-10-17T19:55:04.467Z,11.57
2018-10-17T19:57:31.710Z,11.87
2018-10-17T19:59:58.924Z,11.43
2018-10-17T20:02:26.144Z,12.30
2018-10-17T20:04:53.315Z,11.70
2018-10-17T20:07:20.494Z,11.83
2018-10-17T20:09:47.707Z,11.83
2018-10-17T20:12:14.911Z,12.20
2018-10-17T20:14:43.168Z,12.30
2018-10-17T20:17:10.334Z,12.10
2018-10-17T20:19:37.507Z,12.00
2018-10-17T20:22:06.886Z,11.90
2018-10-17T20:24:34.057Z,12.40
2018-10-17T20:27:01.280Z,12.07
2018-10-17T20:29:28.406Z,12.30
2018-10-17T20:31:55.632Z,12.20
2018-10-17T20:34:22.791Z,12.30
2018-10-17T20:36:49.951Z,12.43
2018-10-17T20:39:17.123Z,11.60
2018-10-17T20:41:44.290Z,12.50
2018-10-17T20:44:12.819Z,12.30
2018-10-17T20:46:39.991Z,12.40
2018-10-17T20:49:07.608Z,13.47
2018-10-17T20:51:34.789Z,12.70
2018-10-17T20:54:01.947Z,12.80
2018-10-17T20:56:29.127Z,11.80
2018-10-17T20:58:56.426Z,12.40
2018-10-17T21:01:23.653Z,12.10
2018-10-17T21:03:50.859Z,11.97
2018-10-17T21:06:18.028Z,12.53
2018-10-17T21:08:45.193Z,13.13
2018-10-17T21:11:12.364Z,12.90
2018-10-17T21:13:39.542Z,11.90
2018-10-17T21:16:06.829Z,13.63
2018-10-17T21:18:34.186Z,11.87
2018-10-17T21:21:01.165Z,13.30
2018-10-17T21:23:28.392Z,12.50
2018-10-17T21:25:55.646Z,12.87
2018-10-17T21:28:22.842Z,12.90
2018-10-17T21:30:50.239Z,13.10
2018-10-17T21:33:17.409Z,13.17
2018-10-17T21:35:44.569Z,13.40
2018-10-17T21:38:11.827Z,13.33
2018-10-17T21:40:38.934Z,12.83
2018-10-17T21:43:06.089Z,13.33
2018-10-17T21:45:33.274Z,12.70
2018-10-17T21:48:00.446Z,14.60
2018-10-17T21:50:27.619Z,15.00
2018-10-17T21:52:54.791Z,15.80
2018-10-17T21:55:21.964Z,14.33
2018-10-17T21:57:49.123Z,13.40
2018-10-17T22:00:16.346Z,13.47
2018-10-17T22:02:43.531Z,13.20
2018-10-17T22:05:11.081Z,12.97
2018-10-17T22:07:38.375Z,13.30
2018-10-17T22:10:05.851Z,14.80
2018-10-17T22:12:33.015Z,13.97
2018-10-17T22:15:00.227Z,13.73
2018-10-17T22:17:27.381Z,14.67
2018-10-17T22:19:54.723Z,14.10
2018-10-17T22:22:21.903Z,13.97
2018-10-17T22:24:49.049Z,13.77
2018-10-17T22:27:16.254Z,13.60
2018-10-17T22:29:43.464Z,13.60
2018-10-17T22:32:10.695Z,12.93
2018-10-17T22:34:37.817Z,13.57
2018-10-17T22:37:05.472Z,13.77
2018-10-17T22:39:32.632Z,14.03
2018-10-17T22:41:59.810Z,13.47
2018-10-17T22:44:26.986Z,13.50
2018-10-17T22:46:54.186Z,13.63
2018-10-17T22:49:21.354Z,13.50
2018-10-17T22:51:48.518Z,14.20
2018-10-17T22:54:15.670Z,14.67
2018-10-17T22:56:42.848Z,15.00
2018-10-17T22:59:10.015Z,15.33
2018-10-17T23:01:37.613Z,15.47
2018-10-17T23:04:05.156Z,15.07
2018-10-17T23:06:32.331Z,14.20
2018-10-17T23:08:59.494Z,14.87
2018-10-17T23:11:26.655Z,15.17
2018-10-17T23:13:53.828Z,16.80
2018-10-17T23:16:20.990Z,16.27
2018-10-17T23:18:48.157Z,17.40
2018-10-17T23:21:15.323Z,16.20
2018-10-17T23:23:42.495Z,15.90
2018-10-17T23:26:09.710Z,15.93
2018-10-17T23:28:36.914Z,16.80
2018-10-17T23:31:04.134Z,15.90
2018-10-17T23:33:31.306Z,16.37
2018-10-17T23:35:58.496Z,17.10
2018-10-17T23:38:25.758Z,16.40
2018-10-17T23:40:52.918Z,17.23
2018-10-17T23:43:20.083Z,16.03
2018-10-17T23:45:47.242Z,17.00
2018-10-17T23:48:14.460Z,16.07
2018-10-17T23:50:41.584Z,16.90
2018-10-17T23:53:09.153Z,16.90
2018-10-17T23:55:36.337Z,16.40
2018-10-17T23:58:03.767Z,17.13
